Terminal Aerodrome Forecast
Issued by NWS

Home | Current Version | Previous Version | Text Only | Print | Product List | Glossary On
Versions: 1 2 3 4 5 6 7 8 9 10 11 12 13 14 15 16 17 18 19
000
FTUS44 KCRP 222337
TAFALI
TAF
KALI 222337Z 2300/2324 13010KT P6SM SCT022 BKN250
     FM230600 13008KT P6SM SCT015 BKN035
      TEMPO 2306/2310 BKN015
     FM231000 13006KT P6SM OVC015
     FM231500 15014G19KT P6SM SCT020 BKN035 PROB30 2316/2320 4SM
      TSRA BR BKN015CB OVC030
     FM232000 13016G22KT P6SM VCTS SCT035CB OVC100
      TEMPO 2320/2324 VRB15G30KT 2SM +TSRA BR OVC015CB=

USA.gov is the U.S. government's official web portal to all federal, state and local government web resources and services.